createdAt,value
2019-03-16T00:02:04.700Z,6.02
2019-03-16T00:04:33.053Z,5.99
2019-03-16T00:07:01.197Z,5.90
2019-03-16T00:09:29.435Z,5.95
2019-03-16T00:11:57.811Z,6.03
2019-03-16T00:14:26.460Z,5.91
2019-03-16T00:16:54.706Z,5.87
2019-03-16T00:19:23.056Z,5.94
2019-03-16T00:21:51.380Z,6.02
2019-03-16T00:24:19.647Z,5.99
2019-03-16T00:26:47.988Z,6.01
2019-03-16T00:29:16.356Z,5.96
2019-03-16T00:31:44.801Z,6.07
2019-03-16T00:34:13.131Z,6.10
2019-03-16T00:36:41.328Z,6.07
2019-03-16T00:39:10.518Z,6.11
2019-03-16T00:41:39.312Z,6.13
2019-03-16T00:44:07.566Z,6.05
2019-03-16T00:46:35.771Z,6.18
2019-03-16T00:49:04.063Z,6.04
2019-03-16T00:51:32.443Z,6.12
2019-03-16T00:54:00.645Z,6.15
2019-03-16T00:56:29.222Z,6.13
2019-03-16T00:58:57.665Z,6.23
2019-03-16T01:01:25.941Z,6.10
2019-03-16T01:03:54.165Z,6.17
2019-03-16T01:06:23.216Z,6.05
2019-03-16T01:08:51.407Z,6.10
2019-03-16T01:11:19.563Z,5.90
2019-03-16T01:13:47.775Z,5.93
2019-03-16T01:16:16.065Z,6.18
2019-03-16T01:18:44.248Z,6.13
2019-03-16T01:21:12.502Z,6.13
2019-03-16T01:23:42.871Z,6.08
2019-03-16T01:26:10.685Z,6.01
2019-03-16T01:28:38.817Z,6.09
2019-03-16T01:31:06.978Z,6.04
2019-03-16T01:33:35.193Z,6.08
2019-03-16T01:36:03.413Z,5.99
2019-03-16T01:38:31.573Z,6.09
2019-03-16T01:40:59.690Z,6.04
2019-03-16T01:43:27.907Z,5.97
2019-03-16T01:45:56.181Z,5.81
2019-03-16T01:48:24.384Z,5.96
2019-03-16T01:50:52.780Z,5.99
2019-03-16T01:53:21.041Z,5.90
2019-03-16T01:55:49.329Z,5.99
2019-03-16T01:58:17.445Z,5.98
2019-03-16T02:00:45.659Z,6.01
2019-03-16T02:03:13.895Z,5.95
2019-03-16T02:05:42.477Z,5.99
2019-03-16T02:08:11.261Z,5.82
2019-03-16T02:10:39.391Z,5.94
2019-03-16T02:13:07.779Z,5.90
2019-03-16T02:15:36.009Z,6.00
2019-03-16T02:18:04.347Z,6.04
2019-03-16T02:20:32.647Z,5.98
2019-03-16T02:23:00.887Z,5.98
2019-03-16T02:25:29.096Z,5.87
2019-03-16T02:27:57.219Z,5.87
2019-03-16T02:30:25.387Z,5.91
2019-03-16T02:33:11.172Z,5.97
2019-03-16T02:35:23.648Z,5.90
2019-03-16T02:37:51.969Z,5.91
2019-03-16T02:40:20.186Z,5.91
2019-03-16T02:42:48.326Z,5.95
2019-03-16T02:45:16.476Z,5.86
2019-03-16T02:47:44.838Z,5.86
2019-03-16T02:50:13.274Z,5.91
2019-03-16T02:52:41.592Z,5.83
2019-03-16T02:55:09.986Z,5.76
2019-03-16T02:57:38.152Z,5.75
2019-03-16T03:00:07.837Z,5.80
2019-03-16T03:02:36.046Z,5.85
2019-03-16T03:05:04.255Z,5.88
2019-03-16T03:07:32.621Z,5.82
2019-03-16T03:10:01.094Z,5.86
2019-03-16T03:12:29.169Z,5.79
2019-03-16T03:14:57.714Z,5.81
2019-03-16T03:17:25.873Z,5.79
2019-03-16T03:19:54.352Z,5.80
2019-03-16T03:22:22.491Z,5.85
2019-03-16T03:24:50.873Z,5.83
2019-03-16T03:27:19.274Z,5.79
2019-03-16T03:29:47.625Z,5.83
2019-03-16T03:32:15.764Z,5.79
2019-03-16T03:34:44.466Z,5.75
2019-03-16T03:37:12.947Z,5.82
2019-03-16T03:39:41.132Z,5.76
2019-03-16T03:42:09.478Z,5.86
2019-03-16T03:44:37.662Z,5.78
2019-03-16T03:47:05.922Z,5.84
2019-03-16T03:49:34.170Z,5.83
2019-03-16T03:52:02.600Z,5.84
2019-03-16T03:54:30.993Z,5.86
2019-03-16T03:56:59.129Z,5.87
2019-03-16T03:59:27.682Z,5.80
2019-03-16T04:01:55.884Z,5.76
2019-03-16T04:04:24.387Z,5.92
2019-03-16T04:06:52.713Z,5.85
2019-03-16T04:09:21.030Z,5.76
2019-03-16T04:11:49.571Z,5.78
2019-03-16T04:14:17.743Z,5.80
2019-03-16T04:16:46.030Z,5.79
2019-03-16T04:19:14.330Z,5.91
2019-03-16T04:21:42.467Z,5.87
2019-03-16T04:24:11.069Z,5.83
2019-03-16T04:26:39.249Z,5.86
2019-03-16T04:29:07.525Z,5.81
2019-03-16T04:31:36.044Z,5.80
2019-03-16T04:34:04.289Z,5.87
2019-03-16T04:36:32.575Z,5.78
2019-03-16T04:39:00.818Z,5.79
2019-03-16T04:41:28.931Z,5.79
2019-03-16T04:43:57.069Z,5.69
2019-03-16T04:46:25.253Z,5.76
2019-03-16T04:48:53.590Z,5.78
2019-03-16T04:51:21.867Z,5.80
2019-03-16T04:53:50.409Z,5.81
2019-03-16T04:56:18.690Z,5.77
2019-03-16T04:58:46.977Z,5.80
2019-03-16T05:01:15.133Z,5.81
2019-03-16T05:03:43.394Z,5.81
2019-03-16T05:06:11.503Z,5.81
2019-03-16T05:08:39.958Z,5.77
2019-03-16T05:11:08.134Z,5.84
2019-03-16T05:13:36.563Z,5.87
2019-03-16T05:16:04.772Z,5.79
2019-03-16T05:18:33.146Z,5.81
2019-03-16T05:21:01.432Z,5.87
2019-03-16T05:23:29.618Z,5.86
2019-03-16T05:25:57.786Z,5.69
2019-03-16T05:28:25.926Z,5.86
2019-03-16T05:30:54.040Z,5.73
2019-03-16T05:33:22.203Z,5.65
2019-03-16T05:35:50.304Z,5.52
2019-03-16T05:38:18.618Z,5.41
2019-03-16T05:40:46.719Z,5.37
2019-03-16T05:43:14.945Z,5.38
2019-03-16T05:45:43.223Z,5.29
2019-03-16T05:48:11.521Z,5.24
2019-03-16T05:50:39.743Z,5.11
2019-03-16T05:53:07.993Z,5.13
2019-03-16T05:55:36.201Z,5.16
2019-03-16T05:58:04.357Z,5.13
2019-03-16T06:00:32.536Z,5.00
2019-03-16T06:03:00.801Z,4.83
2019-03-16T06:05:29.296Z,4.76
2019-03-16T06:07:57.591Z,4.69
2019-03-16T06:10:25.935Z,4.69
2019-03-16T06:12:54.028Z,4.49
2019-03-16T06:15:22.172Z,4.44
2019-03-16T06:17:50.372Z,4.48
2019-03-16T06:20:18.529Z,4.72
2019-03-16T06:22:46.717Z,4.40
2019-03-16T06:25:14.907Z,4.57
2019-03-16T06:27:43.160Z,4.31
2019-03-16T06:30:11.560Z,4.60
2019-03-16T06:32:39.788Z,4.46
2019-03-16T06:35:08.146Z,4.47
2019-03-16T06:37:36.382Z,4.44
2019-03-16T06:40:04.670Z,4.26
2019-03-16T06:42:32.930Z,4.59
2019-03-16T06:45:01.237Z,4.40
2019-03-16T06:47:29.456Z,4.37
2019-03-16T06:49:57.816Z,4.34
2019-03-16T06:52:26.036Z,4.17
2019-03-16T06:54:54.189Z,4.27
2019-03-16T06:57:22.407Z,4.56
2019-03-16T06:59:50.855Z,4.46
2019-03-16T07:02:19.103Z,4.24
2019-03-16T07:04:47.352Z,4.15
2019-03-16T07:07:15.604Z,4.46
2019-03-16T07:09:43.803Z,4.25
2019-03-16T07:12:12.033Z,4.29
2019-03-16T07:14:40.374Z,4.87
2019-03-16T07:17:08.754Z,4.75
2019-03-16T07:19:37.028Z,4.99
2019-03-16T07:22:05.283Z,4.58
2019-03-16T07:24:33.609Z,4.82
2019-03-16T07:27:01.851Z,4.89
2019-03-16T07:29:30.147Z,4.52
2019-03-16T07:31:58.424Z,4.60
2019-03-16T07:34:26.685Z,5.16
2019-03-16T07:36:55.104Z,4.98
2019-03-16T07:39:23.454Z,5.00
2019-03-16T07:41:51.640Z,5.06
2019-03-16T07:44:20.116Z,5.53
2019-03-16T07:46:48.316Z,5.38
2019-03-16T07:49:16.562Z,5.53
2019-03-16T07:51:44.764Z,5.46
2019-03-16T07:54:13.035Z,5.54
2019-03-16T07:56:41.322Z,5.48
2019-03-16T07:59:09.894Z,5.40
2019-03-16T08:01:38.124Z,5.42
2019-03-16T08:04:06.467Z,5.32
2019-03-16T08:06:34.924Z,5.08
2019-03-16T08:09:03.304Z,5.20
2019-03-16T08:11:31.458Z,5.31
2019-03-16T08:13:59.711Z,5.56
2019-03-16T08:16:29.069Z,5.42
2019-03-16T08:18:57.318Z,5.46
2019-03-16T08:21:25.629Z,5.55
2019-03-16T08:23:53.969Z,5.63
2019-03-16T08:26:22.309Z,5.64
2019-03-16T08:28:50.489Z,5.78
2019-03-16T08:31:18.980Z,5.76
2019-03-16T08:33:47.253Z,5.69
2019-03-16T08:36:15.575Z,5.73
2019-03-16T08:38:43.903Z,5.75
2019-03-16T08:41:12.137Z,5.71
2019-03-16T08:43:40.511Z,5.81
2019-03-16T08:46:08.824Z,5.66
2019-03-16T08:48:37.126Z,5.47
2019-03-16T08:51:05.557Z,5.50
2019-03-16T08:53:33.768Z,5.48
2019-03-16T08:56:01.998Z,5.64
2019-03-16T08:58:30.298Z,5.72
2019-03-16T09:00:58.902Z,5.86
2019-03-16T09:03:27.185Z,5.86
2019-03-16T09:05:55.552Z,5.72
2019-03-16T09:08:23.969Z,5.79
2019-03-16T09:10:52.459Z,5.78
2019-03-16T09:13:20.744Z,5.86
2019-03-16T09:15:49.050Z,5.72
2019-03-16T09:18:17.264Z,5.97
2019-03-16T09:20:45.474Z,5.88
2019-03-16T09:23:13.799Z,6.13
2019-03-16T09:25:42.151Z,6.11
2019-03-16T09:28:18.552Z,6.23
2019-03-16T09:30:40.713Z,5.80
2019-03-16T09:33:09.086Z,6.11
2019-03-16T09:35:37.427Z,6.22
2019-03-16T09:38:05.642Z,6.33
2019-03-16T09:40:33.899Z,6.24
2019-03-16T09:43:02.217Z,6.33
2019-03-16T09:45:30.651Z,6.53
2019-03-16T09:47:58.975Z,6.46
2019-03-16T09:50:27.452Z,6.45
2019-03-16T09:52:55.752Z,6.36
2019-03-16T09:55:24.105Z,6.54
2019-03-16T09:57:52.505Z,6.70
2019-03-16T10:00:20.989Z,6.85
2019-03-16T10:02:49.157Z,6.72
2019-03-16T10:05:17.832Z,6.35
2019-03-16T10:07:46.335Z,6.56
2019-03-16T10:10:14.923Z,6.43
2019-03-16T10:12:43.148Z,6.82
2019-03-16T10:15:11.521Z,6.73
2019-03-16T10:17:39.786Z,6.97
2019-03-16T10:20:08.089Z,7.05
2019-03-16T10:22:36.444Z,7.17
2019-03-16T10:25:04.855Z,6.90
2019-03-16T10:27:33.092Z,7.26
2019-03-16T10:30:01.775Z,7.00
2019-03-16T10:32:35.730Z,7.07
2019-03-16T10:35:05.177Z,7.11
2019-03-16T10:37:34.199Z,7.20
2019-03-16T10:40:02.355Z,7.36
2019-03-16T10:42:30.632Z,7.44
2019-03-16T10:44:59.196Z,7.47
2019-03-16T10:47:27.517Z,7.55
2019-03-16T10:49:55.850Z,7.61
2019-03-16T10:52:24.137Z,7.73
2019-03-16T10:54:52.625Z,7.80
2019-03-16T10:57:20.854Z,7.84
2019-03-16T10:59:49.121Z,8.04
2019-03-16T11:02:17.385Z,8.11
2019-03-16T11:04:45.639Z,8.19
2019-03-16T11:07:14.065Z,8.29
2019-03-16T11:09:42.407Z,8.41
2019-03-16T11:12:10.597Z,8.45
2019-03-16T11:14:41.070Z,8.59
2019-03-16T11:17:08.929Z,8.59
2019-03-16T11:19:37.337Z,8.41
2019-03-16T11:22:05.762Z,8.75
2019-03-16T11:24:34.241Z,8.78
2019-03-16T11:27:02.587Z,8.84
2019-03-16T11:29:30.947Z,8.91
2019-03-16T11:31:59.576Z,8.96
2019-03-16T11:34:27.829Z,8.92
2019-03-16T11:36:56.550Z,8.96
2019-03-16T11:39:24.991Z,9.10
2019-03-16T11:41:53.388Z,9.19
2019-03-16T11:44:21.580Z,9.22
2019-03-16T11:46:49.836Z,9.33
2019-03-16T11:49:18.366Z,9.33
2019-03-16T11:51:46.676Z,9.29
2019-03-16T11:54:15.002Z,9.35
2019-03-16T11:56:43.343Z,7.10
2019-03-16T11:59:20.992Z,9.39
2019-03-16T12:01:41.690Z,9.38
2019-03-16T12:04:09.941Z,9.36
2019-03-16T12:06:38.199Z,9.34
2019-03-16T12:09:08.159Z,9.37
2019-03-16T12:11:36.637Z,9.30
2019-03-16T12:14:04.962Z,9.33
2019-03-16T12:16:33.341Z,9.34
2019-03-16T12:19:01.697Z,9.38
2019-03-16T12:21:30.012Z,9.44
2019-03-16T12:23:58.257Z,9.40
2019-03-16T12:26:26.640Z,9.40
2019-03-16T12:28:55.106Z,9.39
2019-03-16T12:31:23.417Z,9.44
2019-03-16T12:33:51.879Z,9.39
2019-03-16T12:36:20.268Z,9.32
2019-03-16T12:38:49.267Z,9.43
2019-03-16T12:41:20.684Z,9.39
2019-03-16T12:43:49.408Z,9.34
2019-03-16T12:46:18.984Z,9.46
2019-03-16T12:48:47.536Z,9.37
2019-03-16T12:51:16.171Z,9.54
2019-03-16T12:53:45.141Z,9.59
2019-03-16T12:56:13.796Z,9.55
2019-03-16T13:01:37.299Z,9.79
2019-03-16T13:04:05.887Z,9.84
2019-03-16T13:06:35.003Z,9.74
2019-03-16T13:09:04.901Z,9.86
2019-03-16T13:11:33.255Z,9.80
2019-03-16T13:14:01.710Z,9.75
2019-03-16T13:16:30.018Z,9.87
2019-03-16T13:18:58.167Z,9.82
2019-03-16T13:21:26.468Z,9.85
2019-03-16T13:23:54.778Z,9.78
2019-03-16T13:26:23.213Z,9.88
2019-03-16T13:28:51.616Z,9.97
2019-03-16T13:31:20.093Z,9.88
2019-03-16T13:33:48.317Z,9.96
2019-03-16T13:36:17.163Z,10.01
2019-03-16T13:38:45.450Z,9.97
2019-03-16T13:41:14.123Z,9.89
2019-03-16T13:43:42.531Z,9.92
2019-03-16T13:46:11.111Z,9.82
2019-03-16T13:48:39.417Z,9.83
2019-03-16T13:51:08.439Z,10.15
2019-03-16T13:53:37.033Z,9.89
2019-03-16T13:56:06.257Z,9.85
2019-03-16T13:58:34.814Z,9.78
2019-03-16T14:01:03.044Z,9.79
2019-03-16T14:03:31.402Z,9.85
2019-03-16T14:06:00.231Z,9.87
2019-03-16T14:08:29.326Z,9.75
2019-03-16T14:10:58.626Z,9.87
2019-03-16T14:13:27.496Z,9.79
2019-03-16T14:15:56.543Z,9.87
2019-03-16T14:18:24.922Z,9.64
2019-03-16T14:20:53.733Z,9.72
2019-03-16T14:23:22.530Z,9.63
2019-03-16T14:25:51.268Z,9.59
2019-03-16T14:28:20.047Z,9.71
2019-03-16T14:30:48.895Z,9.63
2019-03-16T14:33:18.290Z,9.68
2019-03-16T14:35:46.800Z,9.75
2019-03-16T14:38:15.363Z,9.75
2019-03-16T14:40:44.552Z,9.70
2019-03-16T14:43:13.391Z,9.77
2019-03-16T14:45:41.681Z,9.71
2019-03-16T14:48:10.232Z,9.73
2019-03-16T14:50:39.799Z,9.70
2019-03-16T14:53:08.323Z,9.71
2019-03-16T14:55:36.833Z,9.65
2019-03-16T14:58:05.573Z,9.67
2019-03-16T15:00:38.654Z,9.60
2019-03-16T15:03:04.993Z,9.58
2019-03-16T15:05:33.433Z,9.64
2019-03-16T15:08:02.341Z,9.57
2019-03-16T15:10:31.419Z,9.54
2019-03-16T15:12:59.957Z,9.52
2019-03-16T15:15:28.708Z,9.57
2019-03-16T15:17:57.531Z,9.51
2019-03-16T15:20:26.153Z,9.50
2019-03-16T15:22:58.891Z,9.48
2019-03-16T15:25:27.500Z,9.45
2019-03-16T15:27:56.036Z,9.43
2019-03-16T15:30:24.483Z,9.40
2019-03-16T15:32:53.079Z,9.45
2019-03-16T15:35:21.906Z,9.42
2019-03-16T15:37:50.512Z,9.42
2019-03-16T15:40:18.975Z,9.40
2019-03-16T15:42:47.550Z,9.39
2019-03-16T15:45:17.573Z,9.43
2019-03-16T15:47:46.325Z,9.48
2019-03-16T15:50:14.770Z,9.54
2019-03-16T15:52:43.567Z,9.45
2019-03-16T15:55:12.044Z,9.56
2019-03-16T15:57:42.501Z,9.64
2019-03-16T16:00:11.840Z,9.64
2019-03-16T16:02:40.144Z,9.59
2019-03-16T16:05:08.809Z,9.60
2019-03-16T16:07:38.474Z,9.57
2019-03-16T16:10:07.632Z,9.59
2019-03-16T16:12:36.550Z,9.53
2019-03-16T16:15:05.991Z,9.53
2019-03-16T16:17:34.742Z,9.55
2019-03-16T16:20:03.441Z,9.55
2019-03-16T16:22:32.174Z,9.58
2019-03-16T16:25:00.567Z,9.55
2019-03-16T16:27:28.911Z,9.55
2019-03-16T16:29:57.613Z,9.48
2019-03-16T16:32:26.075Z,9.49
2019-03-16T16:34:54.620Z,9.55
2019-03-16T16:37:23.530Z,9.57
2019-03-16T16:39:59.418Z,9.54
2019-03-16T16:42:28.200Z,9.50
2019-03-16T16:44:57.141Z,9.46
2019-03-16T16:47:26.291Z,9.53
2019-03-16T16:49:54.748Z,9.49
2019-03-16T16:52:24.034Z,9.40
2019-03-16T16:54:52.306Z,9.47
2019-03-16T16:57:20.828Z,9.35
2019-03-16T16:59:49.612Z,9.42
2019-03-16T17:02:18.332Z,9.50
2019-03-16T17:04:46.646Z,9.46
2019-03-16T17:07:15.282Z,9.53
2019-03-16T17:09:43.995Z,9.47
2019-03-16T17:12:12.813Z,9.53
2019-03-16T17:15:00.886Z,9.54
2019-03-16T17:17:35.079Z,9.46
2019-03-16T17:20:01.311Z,9.46
2019-03-16T17:22:30.392Z,9.43
2019-03-16T17:24:58.939Z,9.50
2019-03-16T17:27:27.688Z,9.44
2019-03-16T17:29:57.114Z,9.42
2019-03-16T17:32:25.984Z,9.41
2019-03-16T17:34:54.379Z,9.40
2019-03-16T17:37:22.845Z,9.35
2019-03-16T17:39:53.796Z,9.41
2019-03-16T17:42:22.789Z,9.45
2019-03-16T17:44:52.114Z,9.41
2019-03-16T17:47:21.076Z,9.40
2019-03-16T17:49:51.167Z,9.34
2019-03-16T17:52:20.398Z,9.34
2019-03-16T17:54:49.165Z,9.40
2019-03-16T17:57:17.716Z,9.36
2019-03-16T17:59:46.354Z,9.33
2019-03-16T18:02:17.833Z,9.32
2019-03-16T18:04:47.150Z,9.32
2019-03-16T18:07:16.276Z,9.40
2019-03-16T18:09:46.304Z,9.34
2019-03-16T18:12:15.358Z,9.42
2019-03-16T18:14:43.808Z,9.29
2019-03-16T18:17:12.256Z,9.18
2019-03-16T18:19:40.916Z,9.33
2019-03-16T18:22:09.389Z,9.37
2019-03-16T18:24:38.017Z,9.32
2019-03-16T18:27:07.421Z,9.33
2019-03-16T18:29:36.102Z,9.41
2019-03-16T18:32:08.171Z,9.24
2019-03-16T18:34:35.255Z,9.20
2019-03-16T18:37:03.645Z,9.29
2019-03-16T18:39:32.306Z,9.27
2019-03-16T18:42:03.738Z,9.19
2019-03-16T18:44:32.370Z,9.27
2019-03-16T18:47:01.163Z,9.36
2019-03-16T18:49:30.403Z,9.19
2019-03-16T18:51:59.455Z,9.02
2019-03-16T18:54:28.157Z,9.21
2019-03-16T18:56:57.475Z,9.30
2019-03-16T18:59:26.307Z,9.35
2019-03-16T19:01:55.392Z,9.23
2019-03-16T19:04:23.964Z,9.50
2019-03-16T19:06:52.945Z,9.36
2019-03-16T19:09:21.932Z,9.31
2019-03-16T19:11:50.658Z,9.37
2019-03-16T19:14:19.221Z,9.24
2019-03-16T19:16:48.412Z,9.23
2019-03-16T19:19:18.397Z,9.29
2019-03-16T19:21:47.480Z,9.39
2019-03-16T19:24:16.971Z,9.43
2019-03-16T19:26:45.840Z,9.52
2019-03-16T19:29:15.827Z,9.46
2019-03-16T19:31:45.730Z,9.24
2019-03-16T19:34:14.636Z,9.00
2019-03-16T19:36:44.144Z,9.39
2019-03-16T19:39:13.370Z,9.47
2019-03-16T19:41:42.390Z,9.39
2019-03-16T19:44:11.991Z,9.23
2019-03-16T19:46:41.367Z,9.37
2019-03-16T19:49:10.672Z,9.36
2019-03-16T19:51:39.602Z,9.33
2019-03-16T19:54:08.663Z,9.37
2019-03-16T19:56:37.742Z,9.40
2019-03-16T19:59:06.669Z,9.27
2019-03-16T20:01:37.651Z,9.40
2019-03-16T20:04:07.206Z,9.31
2019-03-16T20:06:36.748Z,9.31
2019-03-16T20:09:07.908Z,9.35
2019-03-16T20:11:38.193Z,9.25
2019-03-16T20:14:06.984Z,9.27
2019-03-16T20:16:36.269Z,9.38
2019-03-16T20:19:05.227Z,9.28
2019-03-16T20:21:34.617Z,9.05
2019-03-16T20:24:03.664Z,9.34
2019-03-16T20:26:32.531Z,9.27
2019-03-16T20:29:01.302Z,9.19
2019-03-16T20:31:30.180Z,9.19
2019-03-16T20:33:59.069Z,9.21
2019-03-16T20:36:27.828Z,9.18
2019-03-16T20:38:57.097Z,9.24
2019-03-16T20:41:36.155Z,9.11
2019-03-16T20:43:58.128Z,9.05
2019-03-16T20:46:26.977Z,9.15
2019-03-16T20:48:56.221Z,9.23
2019-03-16T20:51:24.945Z,9.13
2019-03-16T20:53:54.127Z,9.18
2019-03-16T20:56:22.817Z,9.06
2019-03-16T20:58:51.870Z,9.19
2019-03-16T21:01:20.741Z,9.21
2019-03-16T21:03:50.145Z,9.16
2019-03-16T21:06:19.015Z,9.27
2019-03-16T21:08:48.035Z,9.14
2019-03-16T21:11:18.908Z,9.26
2019-03-16T21:13:48.276Z,9.16
2019-03-16T21:16:19.855Z,9.03
2019-03-16T21:18:48.513Z,9.06
2019-03-16T21:21:17.345Z,9.26
2019-03-16T21:23:46.481Z,9.04
2019-03-16T21:26:15.455Z,8.97
2019-03-16T21:28:43.888Z,9.19
2019-03-16T21:31:12.710Z,9.03
2019-03-16T21:33:41.939Z,9.14
2019-03-16T21:36:11.341Z,9.08
2019-03-16T21:38:40.053Z,9.20
2019-03-16T21:41:10.227Z,9.09
2019-03-16T21:43:39.245Z,8.99
2019-03-16T21:46:08.114Z,9.10
2019-03-16T21:48:37.108Z,8.95
2019-03-16T21:51:05.955Z,8.93
2019-03-16T21:53:34.398Z,9.04
2019-03-16T21:56:02.986Z,9.03
2019-03-16T21:58:32.132Z,8.97
2019-03-16T22:01:01.887Z,9.00
2019-03-16T22:03:41.597Z,8.98
2019-03-16T22:06:01.219Z,8.89
2019-03-16T22:08:30.283Z,8.89
2019-03-16T22:10:59.079Z,8.99
2019-03-16T22:13:27.995Z,8.85
2019-03-16T22:15:57.025Z,8.94
2019-03-16T22:18:26.063Z,9.07
2019-03-16T22:20:54.585Z,9.10
2019-03-16T22:23:23.137Z,8.87
2019-03-16T22:25:51.570Z,8.93
2019-03-16T22:28:20.173Z,8.96
2019-03-16T22:30:48.686Z,8.76
2019-03-16T22:33:17.429Z,8.84
2019-03-16T22:35:45.921Z,8.83
2019-03-16T22:38:34.897Z,8.83
2019-03-16T22:41:03.401Z,8.86
2019-03-16T22:43:32.152Z,8.94
2019-03-16T22:46:00.559Z,8.88
2019-03-16T22:48:29.711Z,8.81
2019-03-16T22:50:58.208Z,8.81
2019-03-16T22:53:26.496Z,8.98
2019-03-16T22:55:54.712Z,8.63
2019-03-16T22:58:23.098Z,8.80
2019-03-16T23:00:52.969Z,8.95
2019-03-16T23:03:21.600Z,8.96
2019-03-16T23:05:49.856Z,8.91
2019-03-16T23:08:18.102Z,8.92
2019-03-16T23:10:46.289Z,8.87
2019-03-16T23:13:14.602Z,8.88
2019-03-16T23:15:43.131Z,8.82
2019-03-16T23:18:11.581Z,8.84
2019-03-16T23:20:39.755Z,8.97
2019-03-16T23:23:08.493Z,8.94
2019-03-16T23:25:36.815Z,9.06
2019-03-16T23:28:05.195Z,8.97
2019-03-16T23:30:33.329Z,8.84
2019-03-16T23:33:01.879Z,8.92
2019-03-16T23:35:30.077Z,8.91
2019-03-16T23:37:58.559Z,8.98
2019-03-16T23:40:26.893Z,9.06
2019-03-16T23:42:55.177Z,9.12
2019-03-16T23:45:23.416Z,9.13
2019-03-16T23:47:52.293Z,9.11
2019-03-16T23:50:20.587Z,9.07
2019-03-16T23:52:48.819Z,9.22
2019-03-16T23:55:17.169Z,9.15
2019-03-16T23:57:45.690Z,9.13
